Time;durP1;ratioP1;P1;durP2;ratioP2;P2;SDS_P1;SDS_P2;PMS_P1;PMS_P2;Temp;Humidity;BMP_temperature;BMP_pressure;BME280_temperature;BME280_humidity;BME280_pressure;Samples;Min_cycle;Max_cycle;Signal;HPM_P1;HPM_P2
2022/04/10 00:00:58;;;;;;;9.70;1.77;;;;;;;;;;6240342;23;20082;-88
2022/04/10 00:03:25;;;;;;;4.55;1.77;;;;;;;;;;6251592;22;20190;-87
2022/04/10 00:05:54;;;;;;;5.60;1.65;;;;;;;;;;6240126;23;20047;-87
2022/04/10 00:08:22;;;;;;;9.43;1.60;;;;;;;;;;6240061;23;20482;-87
2022/04/10 00:10:49;;;;;;;6.40;1.77;;;;;;;;;;6252158;22;20071;-88
2022/04/10 00:13:17;;;;;;;6.00;1.63;;;;;;;;;;6251052;22;20071;-87
2022/04/10 00:15:46;;;;;;;9.65;1.60;;;;;;;;;;6242127;23;20095;-87
2022/04/10 00:18:14;;;;;;;7.97;1.60;;;;;;;;;;6251670;22;20028;-87
2022/04/10 00:20:42;;;;;;;4.10;1.75;;;;;;;;;;6241546;22;20031;-87
2022/04/10 00:23:10;;;;;;;10.82;1.80;;;;;;;;;;6251703;22;20355;-87
2022/04/10 00:25:37;;;;;;;8.85;1.83;;;;;;;;;;6251735;22;20020;-87
2022/04/10 00:28:07;;;;;;;7.55;1.50;;;;;;;;;;6254178;23;20024;-88
2022/04/10 00:30:35;;;;;;;9.77;1.98;;;;;;;;;;6253552;23;20022;-87
2022/04/10 00:33:04;;;;;;;8.93;1.58;;;;;;;;;;6275742;22;20017;-87
2022/04/10 00:35:31;;;;;;;9.63;1.95;;;;;;;;;;6281678;22;20020;-87
2022/04/10 00:38:00;;;;;;;4.68;1.77;;;;;;;;;;6268618;22;20096;-87
2022/04/10 00:40:28;;;;;;;7.78;1.88;;;;;;;;;;6258863;23;20020;-87
2022/04/10 00:42:55;;;;;;;7.88;1.63;;;;;;;;;;6260265;22;20016;-87
2022/04/10 00:45:24;;;;;;;5.40;1.40;;;;;;;;;;6222717;23;20039;-87
2022/04/10 00:47:52;;;;;;;4.75;1.02;;;;;;;;;;6257784;23;20027;-87
2022/04/10 00:50:20;;;;;;;9.50;1.52;;;;;;;;;;6249159;23;20031;-87
2022/04/10 00:52:49;;;;;;;6.45;1.15;;;;;;;;;;6258232;23;20048;-87
2022/04/10 00:55:18;;;;;;;10.27;1.60;;;;;;;;;;6248521;23;20482;-87
2022/04/10 00:57:47;;;;;;;9.05;1.48;;;;;;;;;;6222174;23;20674;-87
2022/04/10 01:00:15;;;;;;;8.82;1.17;;;;;;;;;;6256249;22;20024;-78
2022/04/10 01:02:42;;;;;;;4.75;1.35;;;;;;;;;;6251582;23;20028;-78
2022/04/10 01:05:10;;;;;;;4.78;1.52;;;;;;;;;;6253933;22;20098;-78
2022/04/10 01:07:38;;;;;;;7.43;1.52;;;;;;;;;;6241057;23;20131;-78
2022/04/10 01:10:06;;;;;;;4.45;1.50;;;;;;;;;;6252404;23;20054;-78
2022/04/10 01:12:34;;;;;;;8.02;1.55;;;;;;;;;;6245385;22;20459;-79
2022/04/10 01:15:09;;;;;;;6.47;1.23;;;;;;;;;;6258021;23;20851;-86
2022/04/10 01:17:40;;;;;;;4.80;1.33;;;;;;;;;;6263699;23;20016;-87
2022/04/10 01:20:09;;;;;;;8.70;1.50;;;;;;;;;;6255638;23;20106;-86
2022/04/10 01:22:40;;;;;;;7.47;1.40;;;;;;;;;;6260384;23;20090;-86
2022/04/10 01:25:12;;;;;;;10.25;1.48;;;;;;;;;;6254995;23;20040;-87
2022/04/10 01:27:41;;;;;;;5.03;1.40;;;;;;;;;;6253342;23;20107;-87
2022/04/10 01:30:11;;;;;;;8.88;1.73;;;;;;;;;;6252532;23;20024;-86
2022/04/10 01:32:42;;;;;;;4.00;1.30;;;;;;;;;;6251676;23;20020;-86
2022/04/10 01:35:10;;;;;;;7.97;1.40;;;;;;;;;;6216452;23;20139;-87
2022/04/10 01:37:38;;;;;;;7.93;1.90;;;;;;;;;;6250760;23;20078;-87
2022/04/10 01:40:10;;;;;;;10.73;1.92;;;;;;;;;;6251274;23;20024;-86
2022/04/10 01:42:38;;;;;;;8.10;2.10;;;;;;;;;;6240833;23;20082;-86
2022/04/10 01:45:06;;;;;;;7.70;1.75;;;;;;;;;;6226098;23;20027;-86
2022/04/10 01:47:36;;;;;;;7.03;1.67;;;;;;;;;;6241416;22;20047;-86
2022/04/10 01:50:04;;;;;;;8.85;1.52;;;;;;;;;;6252799;22;20016;-86
2022/04/10 01:52:31;;;;;;;9.75;2.33;;;;;;;;;;6215127;23;20046;-86
2022/04/10 01:54:59;;;;;;;4.85;1.30;;;;;;;;;;6250762;23;20097;-86
2022/04/10 01:57:28;;;;;;;5.35;1.35;;;;;;;;;;6250536;23;20022;-86
2022/04/10 01:59:55;;;;;;;14.43;1.70;;;;;;;;;;6225909;23;20027;-86
2022/04/10 02:02:25;;;;;;;11.48;1.73;;;;;;;;;;6250196;23;20111;-86
2022/04/10 02:04:53;;;;;;;10.60;1.30;;;;;;;;;;6253354;23;20050;-86
2022/04/10 02:07:22;;;;;;;9.00;1.58;;;;;;;;;;6251172;23;20447;-86
2022/04/10 02:09:49;;;;;;;6.35;1.58;;;;;;;;;;6250698;23;20073;-87
2022/04/10 02:12:17;;;;;;;4.45;1.48;;;;;;;;;;6241228;23;20020;-87
2022/04/10 02:14:45;;;;;;;8.20;1.70;;;;;;;;;;6217956;23;20024;-87
2022/04/10 02:17:13;;;;;;;6.28;1.42;;;;;;;;;;6252386;23;20016;-87
2022/04/10 02:19:41;;;;;;;7.90;1.63;;;;;;;;;;6253831;23;20104;-87
2022/04/10 02:22:09;;;;;;;8.00;1.88;;;;;;;;;;6241387;23;20327;-87
2022/04/10 02:24:37;;;;;;;11.10;1.60;;;;;;;;;;6251107;23;20087;-87
2022/04/10 02:27:05;;;;;;;5.60;1.80;;;;;;;;;;6226363;23;20016;-87
2022/04/10 02:29:33;;;;;;;13.95;2.00;;;;;;;;;;6253365;22;20538;-87
2022/04/10 02:32:02;;;;;;;4.57;1.58;;;;;;;;;;6252851;23;20028;-86
2022/04/10 02:34:29;;;;;;;6.38;1.80;;;;;;;;;;6227406;23;20048;-87
2022/04/10 02:36:58;;;;;;;9.55;2.00;;;;;;;;;;6250913;23;20031;-87
2022/04/10 02:39:27;;;;;;;7.32;1.73;;;;;;;;;;6216163;23;20039;-87
2022/04/10 02:41:55;;;;;;;8.18;1.63;;;;;;;;;;6253898;23;20053;-86
2022/04/10 02:44:24;;;;;;;6.00;1.63;;;;;;;;;;6252855;22;20024;-87
2022/04/10 02:46:51;;;;;;;6.00;2.67;;;;;;;;;;6252624;22;20031;-87
2022/04/10 02:49:19;;;;;;;6.68;1.70;;;;;;;;;;6251287;23;20458;-87
2022/04/10 02:51:49;;;;;;;6.35;1.77;;;;;;;;;;6250816;23;20024;-87
2022/04/10 02:54:18;;;;;;;9.25;1.67;;;;;;;;;;6252648;22;20818;-87
2022/04/10 02:56:46;;;;;;;5.25;1.63;;;;;;;;;;6251954;23;20348;-87
2022/04/10 02:59:13;;;;;;;7.78;1.80;;;;;;;;;;6226471;23;20020;-87
2022/04/10 03:01:42;;;;;;;4.00;1.45;;;;;;;;;;6251010;23;20024;-87
2022/04/10 03:04:10;;;;;;;5.95;1.10;;;;;;;;;;6250990;23;20067;-87
2022/04/10 03:06:37;;;;;;;4.25;1.10;;;;;;;;;;6251098;23;20012;-87
2022/04/10 03:09:05;;;;;;;5.18;1.20;;;;;;;;;;6250640;23;20024;-87
2022/04/10 03:11:34;;;;;;;4.50;1.15;;;;;;;;;;6252109;23;20019;-87
2022/04/10 03:14:02;;;;;;;3.10;1.10;;;;;;;;;;6241145;23;20034;-87
2022/04/10 03:16:29;;;;;;;5.43;1.20;;;;;;;;;;6227298;23;20202;-87
2022/04/10 03:18:57;;;;;;;3.25;1.30;;;;;;;;;;6250887;23;20343;-87
2022/04/10 03:21:26;;;;;;;2.67;1.25;;;;;;;;;;6250575;23;20503;-87
2022/04/10 03:23:53;;;;;;;2.85;1.25;;;;;;;;;;6250492;23;20471;-87
2022/04/10 03:26:23;;;;;;;6.25;1.33;;;;;;;;;;6249947;23;20404;-87
2022/04/10 03:28:50;;;;;;;1.98;1.00;;;;;;;;;;6250234;23;20077;-87
2022/04/10 03:31:18;;;;;;;3.10;1.10;;;;;;;;;;6249519;23;20379;-88
2022/04/10 03:33:46;;;;;;;3.03;1.35;;;;;;;;;;6240824;23;20020;-87
2022/04/10 03:36:13;;;;;;;4.15;1.40;;;;;;;;;;6252347;22;20047;-87
2022/04/10 03:38:42;;;;;;;4.20;1.45;;;;;;;;;;6250658;23;20020;-88
2022/04/10 03:41:10;;;;;;;8.43;1.60;;;;;;;;;;6250871;23;20098;-88
2022/04/10 03:43:38;;;;;;;4.82;2.05;;;;;;;;;;6215361;23;20024;-87
2022/04/10 03:46:05;;;;;;;6.05;1.63;;;;;;;;;;6251763;22;20671;-88
2022/04/10 03:48:34;;;;;;;4.13;2.03;;;;;;;;;;6222753;23;20020;-88
2022/04/10 03:51:02;;;;;;;5.03;2.13;;;;;;;;;;6250894;23;20360;-87
2022/04/10 03:53:30;;;;;;;7.15;2.03;;;;;;;;;;6252023;22;20043;-87
2022/04/10 03:55:57;;;;;;;7.07;1.90;;;;;;;;;;6250916;23;20031;-87
2022/04/10 03:58:26;;;;;;;6.65;1.92;;;;;;;;;;6249760;23;20030;-87
2022/04/10 04:00:53;;;;;;;6.75;2.35;;;;;;;;;;6215062;23;20023;-87
2022/04/10 04:03:22;;;;;;;5.72;2.00;;;;;;;;;;6249910;23;20024;-87
2022/04/10 04:05:49;;;;;;;4.97;1.90;;;;;;;;;;6251669;22;20099;-87
2022/04/10 04:08:18;;;;;;;3.33;1.58;;;;;;;;;;6250379;23;20489;-87
2022/04/10 04:10:46;;;;;;;7.72;2.40;;;;;;;;;;6250821;23;20020;-87
2022/04/10 04:13:14;;;;;;;9.15;1.88;;;;;;;;;;6251659;22;20483;-86
2022/04/10 04:15:44;;;;;;;8.88;1.70;;;;;;;;;;6250506;23;20054;-87
2022/04/10 04:18:11;;;;;;;8.73;1.70;;;;;;;;;;6249914;23;20019;-87
2022/04/10 04:20:39;;;;;;;7.72;1.80;;;;;;;;;;6250763;23;20043;-88
2022/04/10 04:23:07;;;;;;;5.95;1.77;;;;;;;;;;6249820;23;20020;-87
2022/04/10 04:25:36;;;;;;;5.72;1.60;;;;;;;;;;6215700;23;20022;-87
2022/04/10 04:28:06;;;;;;;5.53;1.95;;;;;;;;;;6251557;23;20019;-87
2022/04/10 04:30:33;;;;;;;4.50;1.77;;;;;;;;;;6253693;22;20539;-87
2022/04/10 04:33:04;;;;;;;8.02;2.58;;;;;;;;;;6251956;23;20131;-87
2022/04/10 04:35:32;;;;;;;6.95;1.80;;;;;;;;;;6252451;23;20023;-87
2022/04/10 04:38:00;;;;;;;6.68;2.22;;;;;;;;;;6251749;23;20015;-86
2022/04/10 04:40:30;;;;;;;6.90;1.85;;;;;;;;;;6253355;22;20443;-86
2022/04/10 04:42:57;;;;;;;7.10;2.17;;;;;;;;;;6251545;23;20016;-87
2022/04/10 04:45:28;;;;;;;4.78;1.90;;;;;;;;;;6252407;23;20028;-88
2022/04/10 04:48:02;;;;;;;7.45;1.90;;;;;;;;;;6251223;23;20087;-87
2022/04/10 04:50:31;;;;;;;6.38;1.80;;;;;;;;;;6227287;23;20336;-87
2022/04/10 04:52:59;;;;;;;6.25;1.95;;;;;;;;;;6240546;23;20035;-87
2022/04/10 04:55:28;;;;;;;15.52;2.00;;;;;;;;;;6253310;22;20451;-87
2022/04/10 04:57:55;;;;;;;4.93;2.05;;;;;;;;;;6251745;23;20386;-87
2022/04/10 05:00:23;;;;;;;9.20;2.70;;;;;;;;;;6251915;23;20047;-87
2022/04/10 05:02:55;;;;;;;10.23;2.58;;;;;;;;;;6251834;23;20820;-87
2022/04/10 05:05:25;;;;;;;15.32;3.00;;;;;;;;;;6241899;23;20845;-87
2022/04/10 05:07:53;;;;;;;4.20;1.67;;;;;;;;;;6251032;23;20066;-87
2022/04/10 05:10:22;;;;;;;5.85;2.35;;;;;;;;;;6230079;23;20022;-85
2022/04/10 05:12:51;;;;;;;12.35;2.35;;;;;;;;;;6231593;23;20439;-88
2022/04/10 05:15:24;;;;;;;9.25;2.35;;;;;;;;;;6228956;23;20119;-88
2022/04/10 05:17:51;;;;;;;8.70;2.88;;;;;;;;;;6229687;23;20039;-87
2022/04/10 05:20:20;;;;;;;8.63;2.67;;;;;;;;;;6224710;23;20046;-86
2022/04/10 05:22:56;;;;;;;9.05;2.60;;;;;;;;;;6255903;23;20839;-88
2022/04/10 05:25:26;;;;;;;6.97;2.45;;;;;;;;;;6256927;22;20103;-86
2022/04/10 05:27:53;;;;;;;12.80;2.70;;;;;;;;;;6219188;23;20020;-87
2022/04/10 05:30:22;;;;;;;6.20;2.30;;;;;;;;;;6229828;23;20016;-87
2022/04/10 05:32:51;;;;;;;10.93;1.98;;;;;;;;;;6256663;22;20099;-88
2022/04/10 05:35:20;;;;;;;12.10;2.70;;;;;;;;;;6254093;23;20444;-87
2022/04/10 05:37:47;;;;;;;12.63;2.72;;;;;;;;;;6253280;23;20386;-88
2022/04/10 05:40:16;;;;;;;12.25;2.33;;;;;;;;;;6254213;23;20020;-87
2022/04/10 05:42:44;;;;;;;12.00;2.85;;;;;;;;;;6219481;23;20027;-87
2022/04/10 05:45:14;;;;;;;14.68;2.78;;;;;;;;;;6253849;23;20016;-88
2022/04/10 05:47:48;;;;;;;6.97;2.35;;;;;;;;;;6253392;23;20394;-86
2022/04/10 05:50:20;;;;;;;10.68;2.67;;;;;;;;;;6229330;23;20027;-86
2022/04/10 05:52:48;;;;;;;15.70;2.58;;;;;;;;;;6255241;22;20030;-86
2022/04/10 05:55:18;;;;;;;7.88;2.28;;;;;;;;;;6257266;23;20024;-87
2022/04/10 05:57:46;;;;;;;6.57;2.53;;;;;;;;;;6274829;22;20012;-87
2022/04/10 06:00:23;;;;;;;13.27;2.13;;;;;;;;;;6282464;22;20008;-86
2022/04/10 06:03:04;;;;;;;8.05;2.05;;;;;;;;;;6230291;23;20076;-86
2022/04/10 06:05:34;;;;;;;8.55;1.95;;;;;;;;;;6261979;23;20020;-86
2022/04/10 06:08:28;;;;;;;12.63;1.90;;;;;;;;;;6244380;23;20034;-85
2022/04/10 06:10:55;;;;;;;7.38;2.50;;;;;;;;;;6236556;23;20036;-85
2022/04/10 06:13:24;;;;;;;15.65;2.30;;;;;;;;;;6239705;23;20104;-85
2022/04/10 06:15:57;;;;;;;9.60;2.55;;;;;;;;;;6236068;23;20107;-86
2022/04/10 06:18:26;;;;;;;13.30;2.58;;;;;;;;;;6257514;23;20020;-86
2022/04/10 06:20:56;;;;;;;4.65;1.73;;;;;;;;;;6258014;23;20016;-86
2022/04/10 06:23:26;;;;;;;4.63;1.90;;;;;;;;;;6254411;23;20028;-77
2022/04/10 06:26:00;;;;;;;11.32;3.08;;;;;;;;;;6213306;23;20118;-77
2022/04/10 06:28:30;;;;;;;17.30;2.25;;;;;;;;;;6247946;23;20012;-77
2022/04/10 06:30:59;;;;;;;12.02;2.35;;;;;;;;;;6248845;23;20015;-77
2022/04/10 06:33:31;;;;;;;15.05;2.38;;;;;;;;;;6225794;23;20024;-78
2022/04/10 06:35:59;;;;;;;10.57;2.38;;;;;;;;;;6248730;23;20030;-78
2022/04/10 06:38:28;;;;;;;15.55;2.25;;;;;;;;;;6213675;23;20091;-78
2022/04/10 06:41:03;;;;;;;13.13;2.17;;;;;;;;;;6251563;23;20351;-78
2022/04/10 06:43:31;;;;;;;15.15;2.70;;;;;;;;;;6248218;23;20024;-78
2022/04/10 06:46:32;;;;;;;8.35;2.03;;;;;;;;;;6186801;23;20431;-78
2022/04/10 06:49:19;;;;;;;10.07;1.77;;;;;;;;;;6186826;23;20017;-78
2022/04/10 06:51:48;;;;;;;10.05;2.00;;;;;;;;;;6186082;23;20028;-78
2022/04/10 06:54:21;;;;;;;16.27;2.08;;;;;;;;;;6185936;23;20025;-79
2022/04/10 06:56:49;;;;;;;6.50;1.92;;;;;;;;;;6160724;23;20028;-77
2022/04/10 06:59:18;;;;;;;5.40;1.52;;;;;;;;;;6161356;23;20020;-78
2022/04/10 07:01:47;;;;;;;3.67;1.75;;;;;;;;;;6185901;23;20048;-77
2022/04/10 07:04:16;;;;;;;7.65;1.92;;;;;;;;;;6185316;23;20029;-76
2022/04/10 07:06:47;;;;;;;9.75;2.05;;;;;;;;;;6175676;23;20345;-77
2022/04/10 07:09:16;;;;;;;5.78;1.60;;;;;;;;;;6185786;23;20031;-77
2022/04/10 07:11:44;;;;;;;5.55;1.80;;;;;;;;;;6186348;23;20029;-78
2022/04/10 07:14:26;;;;;;;4.03;1.42;;;;;;;;;;6186013;23;20108;-77
2022/04/10 07:16:53;;;;;;;9.23;1.85;;;;;;;;;;6185627;23;20160;-77
2022/04/10 07:19:21;;;;;;;6.20;1.45;;;;;;;;;;6186271;23;20418;-77
2022/04/10 07:24:40;;;;;;;4.28;1.45;;;;;;;;;;6236825;23;20047;-77
2022/04/10 07:27:07;;;;;;;6.45;2.15;;;;;;;;;;6245891;23;20020;-78
2022/04/10 07:29:44;;;;;;;11.43;1.80;;;;;;;;;;6224652;23;20028;-78
2022/04/10 07:32:14;;;;;;;3.60;1.63;;;;;;;;;;6248502;23;20012;-78
2022/04/10 07:34:47;;;;;;;8.40;1.88;;;;;;;;;;6247427;23;20026;-78
2022/04/10 07:37:50;;;;;;;5.63;1.75;;;;;;;;;;6148995;23;20021;-77
2022/04/10 07:40:21;;;;;;;7.30;1.95;;;;;;;;;;6184571;23;20020;-77
2022/04/10 07:42:52;;;;;;;8.30;1.88;;;;;;;;;;6184733;23;20025;-77
2022/04/10 07:48:23;;;;;;;8.90;1.75;;;;;;;;;;6150378;23;20016;-77
2022/04/10 07:50:51;;;;;;;8.50;2.22;;;;;;;;;;6185681;23;20028;-77
2022/04/10 07:53:24;;;;;;;8.93;1.60;;;;;;;;;;6159657;23;20591;-77
2022/04/10 07:55:58;;;;;;;9.35;1.77;;;;;;;;;;6185236;23;20643;-77
2022/04/10 07:58:26;;;;;;;5.60;1.42;;;;;;;;;;6173373;23;20455;-77
2022/04/10 08:00:55;;;;;;;13.52;2.17;;;;;;;;;;6185998;23;20368;-77
2022/04/10 08:03:24;;;;;;;4.20;1.27;;;;;;;;;;6185458;23;20029;-77
2022/04/10 08:05:58;;;;;;;9.70;1.90;;;;;;;;;;6187080;23;20610;-77
2022/04/10 08:08:31;;;;;;;10.80;2.40;;;;;;;;;;6185550;23;20027;-76
2022/04/10 08:11:00;;;;;;;10.13;1.95;;;;;;;;;;6195304;23;20020;-76
2022/04/10 08:13:28;;;;;;;16.48;1.77;;;;;;;;;;6223571;23;20023;-79
2022/04/10 08:15:55;;;;;;;8.25;2.08;;;;;;;;;;6251882;22;20390;-79
2022/04/10 08:18:23;;;;;;;10.30;1.92;;;;;;;;;;6253934;23;20066;-79
2022/04/10 08:20:51;;;;;;;9.52;1.60;;;;;;;;;;6261903;23;20048;-76
2022/04/10 08:23:20;;;;;;;3.63;1.20;;;;;;;;;;6251644;23;20436;-77
2022/04/10 08:25:47;;;;;;;5.28;1.83;;;;;;;;;;6250921;22;20026;-76
2022/04/10 08:28:15;;;;;;;3.50;1.48;;;;;;;;;;6250531;23;20791;-78
2022/04/10 08:30:44;;;;;;;4.22;1.00;;;;;;;;;;6241957;23;20028;-78
2022/04/10 08:33:11;;;;;;;8.88;1.63;;;;;;;;;;6250470;22;20105;-78
2022/04/10 08:35:39;;;;;;;5.82;1.60;;;;;;;;;;6250649;23;20024;-78
2022/04/10 08:38:07;;;;;;;11.70;1.80;;;;;;;;;;6249704;23;20036;-78
2022/04/10 08:40:37;;;;;;;11.75;2.17;;;;;;;;;;6249856;23;20463;-78
2022/04/10 08:43:05;;;;;;;8.52;1.90;;;;;;;;;;6249185;23;20094;-78
2022/04/10 08:45:34;;;;;;;12.00;2.00;;;;;;;;;;6252245;22;20106;-77
2022/04/10 08:48:03;;;;;;;7.43;1.70;;;;;;;;;;6251272;22;20016;-78
2022/04/10 08:50:30;;;;;;;7.05;1.65;;;;;;;;;;6240232;23;20420;-79
2022/04/10 08:53:02;;;;;;;6.35;1.70;;;;;;;;;;6214503;23;20102;-77
2022/04/10 08:55:30;;;;;;;15.20;1.92;;;;;;;;;;6251468;22;20444;-77
2022/04/10 08:58:02;;;;;;;8.73;1.40;;;;;;;;;;6249718;22;20107;-77
2022/04/10 09:00:30;;;;;;;5.35;1.33;;;;;;;;;;6252676;23;20094;-77
2022/04/10 09:02:57;;;;;;;9.07;1.75;;;;;;;;;;6224868;23;20016;-77
2022/04/10 09:05:26;;;;;;;8.40;2.35;;;;;;;;;;6242067;22;20028;-77
2022/04/10 09:08:14;;;;;;;8.20;1.48;;;;;;;;;;6248446;22;20023;-78
2022/04/10 09:10:58;;;;;;;12.50;1.63;;;;;;;;;;6251036;22;20020;-78
2022/04/10 09:13:35;;;;;;;11.85;1.55;;;;;;;;;;6239299;22;20050;-78
2022/04/10 09:16:14;;;;;;;8.80;2.00;;;;;;;;;;6250889;22;20506;-78
2022/04/10 09:18:56;;;;;;;9.57;1.60;;;;;;;;;;6252360;22;20016;-79
2022/04/10 09:21:23;;;;;;;7.93;1.20;;;;;;;;;;6250954;23;20048;-79
2022/04/10 09:24:12;;;;;;;7.40;1.30;;;;;;;;;;6250819;23;20095;-79
2022/04/10 09:26:57;;;;;;;11.23;1.10;;;;;;;;;;6239174;23;20070;-79
2022/04/10 09:29:25;;;;;;;11.52;1.70;;;;;;;;;;6249927;22;20044;-79
2022/04/10 09:31:54;;;;;;;5.22;1.15;;;;;;;;;;6250311;22;20028;-78
2022/04/10 09:34:28;;;;;;;7.97;1.65;;;;;;;;;;6240801;22;20371;-78
2022/04/10 09:37:16;;;;;;;6.60;1.48;;;;;;;;;;6250371;22;20016;-77
2022/04/10 09:39:47;;;;;;;5.07;1.30;;;;;;;;;;6238850;22;20748;-77
2022/04/10 09:42:16;;;;;;;4.35;0.90;;;;;;;;;;6247121;23;20023;-77
2022/04/10 09:45:04;;;;;;;5.82;1.10;;;;;;;;;;6237186;23;20424;-77
2022/04/10 09:47:32;;;;;;;8.60;1.67;;;;;;;;;;6248064;23;20024;-78
2022/04/10 09:50:05;;;;;;;6.35;1.55;;;;;;;;;;6249276;23;20016;-79
2022/04/10 09:52:35;;;;;;;8.15;1.33;;;;;;;;;;6249842;22;20031;-79
2022/04/10 09:55:08;;;;;;;6.25;1.83;;;;;;;;;;6250638;22;20047;-79
2022/04/10 09:57:36;;;;;;;8.90;1.63;;;;;;;;;;6249447;22;20538;-78
2022/04/10 10:00:05;;;;;;;11.02;1.55;;;;;;;;;;6250185;23;20365;-78
2022/04/10 10:02:38;;;;;;;12.63;1.40;;;;;;;;;;6249028;22;20020;-79
2022/04/10 10:05:07;;;;;;;8.80;1.80;;;;;;;;;;6250818;22;20402;-79
2022/04/10 10:07:36;;;;;;;7.60;1.40;;;;;;;;;;6249499;22;20470;-79
2022/04/10 10:10:04;;;;;;;6.05;1.65;;;;;;;;;;6249868;23;20027;-79
2022/04/10 10:12:34;;;;;;;10.32;1.80;;;;;;;;;;6250380;22;20085;-79
2022/04/10 10:15:02;;;;;;;11.05;1.55;;;;;;;;;;6250872;23;20027;-79
2022/04/10 10:17:30;;;;;;;8.88;1.80;;;;;;;;;;6250205;22;20019;-79
2022/04/10 10:20:00;;;;;;;7.38;1.48;;;;;;;;;;6249782;22;20447;-78
2022/04/10 10:22:28;;;;;;;7.05;1.25;;;;;;;;;;6249745;22;20012;-77
2022/04/10 10:25:07;;;;;;;6.55;1.30;;;;;;;;;;6250306;22;20035;-78
2022/04/10 10:27:41;;;;;;;5.68;1.10;;;;;;;;;;6236639;23;20015;-78
2022/04/10 10:30:20;;;;;;;10.55;1.45;;;;;;;;;;6250126;22;20482;-78
2022/04/10 10:32:55;;;;;;;5.68;1.30;;;;;;;;;;6250697;22;20050;-78
2022/04/10 10:35:29;;;;;;;6.38;1.25;;;;;;;;;;6250559;22;20457;-79
2022/04/10 10:37:56;;;;;;;5.25;0.98;;;;;;;;;;6250849;22;20519;-79
2022/04/10 10:40:24;;;;;;;4.07;0.90;;;;;;;;;;6251177;22;20031;-79
2022/04/10 10:42:57;;;;;;;7.32;1.15;;;;;;;;;;6250723;22;20103;-79
2022/04/10 10:45:37;;;;;;;5.03;1.48;;;;;;;;;;6251129;22;20098;-79
2022/04/10 10:48:32;;;;;;;6.68;1.20;;;;;;;;;;6250973;22;20074;-79
2022/04/10 10:51:09;;;;;;;5.38;1.30;;;;;;;;;;6250047;23;20024;-78
2022/04/10 10:53:47;;;;;;;7.15;1.75;;;;;;;;;;6249410;23;20434;-77
2022/04/10 10:56:17;;;;;;;5.50;1.15;;;;;;;;;;6249189;22;20777;-78
2022/04/10 10:59:38;;;;;;;3.13;0.63;;;;;;;;;;6248248;23;20058;-78
2022/04/10 11:02:14;;;;;;;6.20;1.40;;;;;;;;;;6249111;23;20651;-78
2022/04/10 11:05:07;;;;;;;3.92;1.08;;;;;;;;;;6239512;23;20525;-78
2022/04/10 11:07:39;;;;;;;7.60;1.17;;;;;;;;;;6249255;22;20488;-78
2022/04/10 11:10:11;;;;;;;4.15;1.20;;;;;;;;;;6249450;22;20031;-78
2022/04/10 11:12:54;;;;;;;5.10;1.10;;;;;;;;;;6248794;22;20043;-78
2022/04/10 11:15:23;;;;;;;8.50;1.38;;;;;;;;;;6249897;22;20082;-77
2022/04/10 11:17:53;;;;;;;7.60;1.42;;;;;;;;;;6249808;22;20020;-77
2022/04/10 11:20:21;;;;;;;6.35;0.85;;;;;;;;;;6238968;23;20107;-78
2022/04/10 11:22:53;;;;;;;4.35;1.10;;;;;;;;;;6249026;22;20098;-78
2022/04/10 11:25:30;;;;;;;7.22;1.15;;;;;;;;;;6212960;23;20048;-78
2022/04/10 11:28:10;;;;;;;5.60;1.30;;;;;;;;;;6249705;22;20738;-79
2022/04/10 11:30:40;;;;;;;4.57;1.63;;;;;;;;;;6251039;22;20036;-79
2022/04/10 11:33:10;;;;;;;4.32;0.95;;;;;;;;;;6251484;22;20031;-80
2022/04/10 11:35:45;;;;;;;4.85;1.20;;;;;;;;;;6251680;22;20023;-79
2022/04/10 11:38:17;;;;;;;5.50;1.10;;;;;;;;;;6252426;22;20039;-79
2022/04/10 11:40:47;;;;;;;7.05;1.10;;;;;;;;;;6251566;22;20051;-78
2022/04/10 11:43:18;;;;;;;5.00;0.90;;;;;;;;;;6254358;22;20023;-78
2022/04/10 11:45:56;;;;;;;7.63;1.00;;;;;;;;;;6252975;22;20016;-78
2022/04/10 11:48:25;;;;;;;3.25;1.02;;;;;;;;;;6251457;22;20016;-77
2022/04/10 11:50:52;;;;;;;7.10;0.95;;;;;;;;;;6248487;23;20473;-77
2022/04/10 11:53:29;;;;;;;1.98;1.23;;;;;;;;;;6248957;23;20080;-77
2022/04/10 11:55:56;;;;;;;4.65;1.33;;;;;;;;;;6248862;22;20089;-76
2022/04/10 11:58:26;;;;;;;6.15;0.95;;;;;;;;;;6248411;23;20332;-76
2022/04/10 12:01:01;;;;;;;4.88;1.10;;;;;;;;;;6249206;22;20478;-77
2022/04/10 12:03:31;;;;;;;4.75;0.90;;;;;;;;;;6249642;22;20020;-77
2022/04/10 12:05:58;;;;;;;4.00;0.77;;;;;;;;;;6240238;22;20017;-76
2022/04/10 12:08:26;;;;;;;7.43;1.38;;;;;;;;;;6238187;23;20023;-76
2022/04/10 12:10:55;;;;;;;5.95;0.93;;;;;;;;;;6249802;22;20051;-76
2022/04/10 12:13:34;;;;;;;4.90;1.27;;;;;;;;;;6249446;22;20020;-76
2022/04/10 12:16:10;;;;;;;3.58;1.17;;;;;;;;;;6250131;22;20050;-75
2022/04/10 12:18:51;;;;;;;4.97;0.77;;;;;;;;;;6250226;22;20075;-76
2022/04/10 12:21:20;;;;;;;5.55;0.90;;;;;;;;;;6248233;23;20024;-76
2022/04/10 12:24:03;;;;;;;3.15;1.08;;;;;;;;;;6249263;22;20024;-76
2022/04/10 12:26:33;;;;;;;4.68;1.20;;;;;;;;;;6248083;22;20016;-77
2022/04/10 12:29:00;;;;;;;6.10;1.05;;;;;;;;;;6237655;23;20024;-76
2022/04/10 12:31:28;;;;;;;3.97;0.90;;;;;;;;;;6255286;22;20108;-76
2022/04/10 12:33:56;;;;;;;2.70;0.73;;;;;;;;;;6247461;23;20399;-76
2022/04/10 12:36:24;;;;;;;6.80;0.95;;;;;;;;;;6253075;23;20442;-76
2022/04/10 12:38:53;;;;;;;4.22;0.85;;;;;;;;;;6247673;22;20016;-77
2022/04/10 12:41:30;;;;;;;8.52;1.05;;;;;;;;;;6248176;23;20050;-77
2022/04/10 12:44:05;;;;;;;3.65;0.88;;;;;;;;;;6239194;22;20095;-77
2022/04/10 12:46:35;;;;;;;8.60;1.38;;;;;;;;;;6250664;22;20024;-77
2022/04/10 12:49:14;;;;;;;4.80;1.10;;;;;;;;;;6250442;22;20335;-77
2022/04/10 12:52:03;;;;;;;6.45;1.15;;;;;;;;;;6251311;22;20024;-78
2022/04/10 12:54:35;;;;;;;11.18;1.30;;;;;;;;;;6256933;22;20019;-78
2022/04/10 12:57:13;;;;;;;7.97;1.30;;;;;;;;;;6246696;23;20020;-78
2022/04/10 12:59:40;;;;;;;7.63;1.20;;;;;;;;;;6255573;22;20012;-79
2022/04/10 13:02:25;;;;;;;7.00;1.20;;;;;;;;;;6253246;22;20347;-79
2022/04/10 13:05:03;;;;;;;5.97;1.45;;;;;;;;;;6242583;22;20044;-79
2022/04/10 13:07:31;;;;;;;6.97;1.00;;;;;;;;;;6249649;23;20440;-79
2022/04/10 13:10:01;;;;;;;3.88;1.33;;;;;;;;;;6239620;22;20020;-79
2022/04/10 13:12:30;;;;;;;7.75;1.38;;;;;;;;;;6250483;23;20070;-78
2022/04/10 13:14:58;;;;;;;8.27;1.27;;;;;;;;;;6251506;22;20047;-78
2022/04/10 13:17:37;;;;;;;3.88;1.40;;;;;;;;;;6251466;22;20019;-79
2022/04/10 13:20:07;;;;;;;6.68;1.50;;;;;;;;;;6251866;22;20016;-78
2022/04/10 13:22:45;;;;;;;8.20;1.30;;;;;;;;;;6240283;22;20082;-78
2022/04/10 13:25:25;;;;;;;4.43;1.10;;;;;;;;;;6250739;23;20024;-78
2022/04/10 13:27:55;;;;;;;7.53;1.27;;;;;;;;;;6249630;22;20119;-80
2022/04/10 13:30:22;;;;;;;4.07;0.90;;;;;;;;;;6252427;22;20027;-77
2022/04/10 13:32:50;;;;;;;3.90;1.20;;;;;;;;;;6251899;23;20066;-77
2022/04/10 13:35:18;;;;;;;5.15;1.20;;;;;;;;;;6252883;23;20066;-77
2022/04/10 13:37:46;;;;;;;13.05;1.60;;;;;;;;;;6241873;23;20111;-76
2022/04/10 13:40:16;;;;;;;5.03;1.25;;;;;;;;;;6253444;22;20020;-76
2022/04/10 13:42:46;;;;;;;5.53;1.30;;;;;;;;;;6252977;23;20331;-76
2022/04/10 13:45:14;;;;;;;4.05;1.10;;;;;;;;;;6244103;22;20032;-76
2022/04/10 13:47:42;;;;;;;4.63;1.27;;;;;;;;;;6253783;22;20020;-76
2022/04/10 13:50:10;;;;;;;7.57;1.35;;;;;;;;;;6244477;22;20091;-76
2022/04/10 13:52:38;;;;;;;7.13;1.15;;;;;;;;;;6252119;22;20018;-76
2022/04/10 13:55:06;;;;;;;8.73;1.40;;;;;;;;;;6253934;22;20399;-76
2022/04/10 13:57:34;;;;;;;4.90;1.30;;;;;;;;;;6250769;23;20134;-76
2022/04/10 14:00:03;;;;;;;8.20;1.35;;;;;;;;;;6243178;23;20062;-76
2022/04/10 14:02:38;;;;;;;4.22;1.02;;;;;;;;;;6253393;22;20223;-76
2022/04/10 14:05:07;;;;;;;10.88;1.23;;;;;;;;;;6254653;22;20066;-76
2022/04/10 14:07:34;;;;;;;10.10;1.52;;;;;;;;;;6252243;22;20023;-76
2022/04/10 14:10:03;;;;;;;5.95;1.10;;;;;;;;;;6243188;22;20382;-76
2022/04/10 14:12:30;;;;;;;6.07;1.75;;;;;;;;;;6253287;22;20020;-77
2022/04/10 14:14:58;;;;;;;10.15;1.50;;;;;;;;;;6252064;22;20020;-77
2022/04/10 14:17:26;;;;;;;9.85;1.60;;;;;;;;;;6250877;23;20026;-77
2022/04/10 14:19:54;;;;;;;11.80;3.22;;;;;;;;;;6241991;23;20024;-77
2022/04/10 14:22:22;;;;;;;5.00;1.60;;;;;;;;;;6242515;23;20418;-77
2022/04/10 14:24:50;;;;;;;9.27;1.83;;;;;;;;;;6252166;23;20022;-78
2022/04/10 14:27:19;;;;;;;7.50;1.27;;;;;;;;;;6250351;23;20321;-77
2022/04/10 14:29:48;;;;;;;6.97;1.20;;;;;;;;;;6240528;23;20008;-77
2022/04/10 14:32:16;;;;;;;7.72;1.65;;;;;;;;;;6251420;23;20024;-76
2022/04/10 14:34:44;;;;;;;5.60;1.02;;;;;;;;;;6251689;22;20016;-78
2022/04/10 14:37:12;;;;;;;8.57;1.50;;;;;;;;;;6255264;23;20024;-77
2022/04/10 14:39:42;;;;;;;5.45;1.65;;;;;;;;;;6248730;22;20034;-76
2022/04/10 14:42:10;;;;;;;5.55;1.27;;;;;;;;;;6257806;22;20043;-76
2022/04/10 14:44:39;;;;;;;10.15;2.90;;;;;;;;;;6254215;23;20419;-76
2022/04/10 14:47:08;;;;;;;5.22;1.50;;;;;;;;;;6252541;22;20473;-75
2022/04/10 14:49:36;;;;;;;6.75;1.50;;;;;;;;;;6250771;22;20012;-75
2022/04/10 14:52:05;;;;;;;9.15;1.52;;;;;;;;;;6251661;23;20328;-76
2022/04/10 14:54:32;;;;;;;10.52;1.98;;;;;;;;;;6251856;22;20020;-76
2022/04/10 14:57:00;;;;;;;9.25;1.80;;;;;;;;;;6251268;23;20317;-76
2022/04/10 14:59:28;;;;;;;8.38;1.63;;;;;;;;;;6252012;22;20008;-75
2022/04/10 15:01:56;;;;;;;3.67;1.30;;;;;;;;;;6245067;22;20016;-75
2022/04/10 15:04:25;;;;;;;10.05;2.28;;;;;;;;;;6255518;22;20023;-75
2022/04/10 15:06:52;;;;;;;10.75;1.58;;;;;;;;;;6254329;22;20415;-75